Amherst, WI

9:27 AM CDT on May 25, 2015 (GMT -0500)
Waupaca Municipal | | Change Station
CLOSE
Current Station
Airport
Location: Waupaca,
Elevation: 827 ft
Nearby Weather Stations

Elev 827 ft 44.33 °N, 89.02 °W | Updated 12 minutes ago

Rain
Rain
68 °F
Feels Like 68 °F
N
9
Wind Variable Wind from SSE

Today
High -- | Low -- °F
--% Chance of Precip.
Yesterday
High -- | Low -- °F
Precip. -- in
5:20 AM 8:28 PM
Waxing Crescent, 49% visible
Pressure 29.70 in
Visibility 4.0 miles
Clouds Mostly Cloudy 500 ft
Overcast 900 ft
Dew Point 66 °F
Humidity 96%
Rainfall 0.68 in
Snow Depth Not available.
UV 2 out of 12
Pollen .90 out of 12
Air Quality Not available.
Flu Activity Sporadic
METAR KPCZ 251415Z AUTO 15008KT 4SM -RA BKN005 OVC009 20/19 A2970 RMK AO2 P0001 T01970191

More Conditions Fewer Conditions

Pressure 29.70 in
Visibility 4.0 miles
Clouds Mostly Cloudy 500 ft
Overcast 900 ft
Dew Point 66 °F
Humidity 96%
Rainfall 0.68 in
Snow Depth Not available.
UV 2 out of 12
Pollen .90 out of 12
Air Quality Not available.
Flu Activity Sporadic
METAR KPCZ 251415Z AUTO 15008KT 4SM -RA BKN005 OVC009 20/19 A2970 RMK AO2 P0001 T01970191

More Conditions Fewer Conditions

10-Day Weather Forecast

Almanac

Astronomy

May. 25, 2015 Rise Set
Actual Time
Civil Twilight
Nautical Twilight
Astronomical Twilight
Moon
Length of Visible Light
Length of Day
Tomorrow will be .
, % of the Moon is Illuminated

Today's Extremes

State Highs State Lows

Community

WunderPhotos

Upload Photos

1,824,025 photos uploaded!

WunderBlogs® & News

Nearby

Air Quality

  Air Quality AQ Index Pollutant
Not available.

Snow Depth

Station Depth Elevation

Earthquake Activity

City Distance Mag. Time & Date
Minimum magnitude displayed is 2.5.

Coastal Water Temperatures

Place Temperature

Stations

Nearby Weather Stations

Station Location Temp. Windchill Dew Point Humidity Wind Precip. Elev Updated Type